createdAt,value
2018-07-22T07:14:11.308Z,23.12
2018-07-22T07:15:14.025Z,23.20
2018-07-22T07:16:17.145Z,23.29
2018-07-22T07:17:19.830Z,23.46
2018-07-22T07:18:22.474Z,23.56
2018-07-22T07:19:26.809Z,23.54
2018-07-22T07:20:31.221Z,23.52
2018-07-22T07:21:33.895Z,23.59
2018-07-22T07:22:36.424Z,23.62
2018-07-22T07:23:40.585Z,23.61
2018-07-22T07:24:44.104Z,23.63
2018-07-22T07:25:47.190Z,23.73
2018-07-22T07:26:49.858Z,23.79
2018-07-22T07:27:52.377Z,23.84
2018-07-22T07:28:55.048Z,23.89
2018-07-22T07:29:57.642Z,23.92
2018-07-22T07:31:00.229Z,23.91
2018-07-22T07:32:03.194Z,23.90
2018-07-22T07:33:07.469Z,23.95
2018-07-22T07:34:09.969Z,23.97
2018-07-22T07:35:12.564Z,24.00
2018-07-22T07:36:15.103Z,24.04
2018-07-22T07:37:17.721Z,23.99
2018-07-22T07:38:21.303Z,23.99
2018-07-22T07:39:24.409Z,24.01
2018-07-22T07:40:27.249Z,24.07
2018-07-22T07:41:30.409Z,24.09
2018-07-22T07:42:33.120Z,24.08
2018-07-22T07:43:35.800Z,24.10
2018-07-22T07:44:39.905Z,24.11
2018-07-22T07:45:42.460Z,24.14
2018-07-22T07:46:45.529Z,24.18
2018-07-22T07:47:48.135Z,24.19
2018-07-22T07:48:52.410Z,24.23
2018-07-22T07:49:56.070Z,24.19
2018-07-22T07:51:00.216Z,24.24
2018-07-22T07:52:02.934Z,24.29
2018-07-22T07:53:05.688Z,24.33
2018-07-22T07:54:08.528Z,24.34
2018-07-22T07:55:11.790Z,24.33
2018-07-22T07:56:14.326Z,24.33
2018-07-22T07:57:16.821Z,24.38
2018-07-22T07:58:19.351Z,24.30
2018-07-22T07:59:21.903Z,24.20
2018-07-22T08:00:24.381Z,24.21
2018-07-22T08:01:27.400Z,24.21
2018-07-22T08:02:30.371Z,24.22
2018-07-22T08:03:33.622Z,24.24
2018-07-22T08:04:37.018Z,24.17
2018-07-22T08:05:41.447Z,24.12
2018-07-22T08:06:44.120Z,24.18
2018-07-22T08:07:46.755Z,24.14
2018-07-22T08:08:49.662Z,24.07
2018-07-22T08:09:52.281Z,24.05
2018-07-22T08:10:54.761Z,24.05
2018-07-22T08:11:57.291Z,24.13
2018-07-22T08:12:59.772Z,24.19
2018-07-22T08:15:09.778Z,24.34
2018-07-22T08:16:12.288Z,24.39
2018-07-22T08:17:14.816Z,24.43
2018-07-22T08:18:17.309Z,24.46
2018-07-22T08:19:19.821Z,24.44
2018-07-22T08:20:22.348Z,24.39
2018-07-22T08:21:26.477Z,24.31
2018-07-22T08:22:27.699Z,23.67
2018-07-22T08:23:31.628Z,24.26
2018-07-22T08:24:35.241Z,24.22
2018-07-22T08:25:37.758Z,24.18
2018-07-22T08:26:41.810Z,24.15
2018-07-22T08:27:44.642Z,24.07
2018-07-22T08:28:47.166Z,24.01
2018-07-22T08:29:49.671Z,23.97
2018-07-22T08:30:53.572Z,23.92
2018-07-22T08:31:57.020Z,23.93
2018-07-22T08:32:59.590Z,23.94
2018-07-22T08:34:02.458Z,23.92
2018-07-22T08:35:04.973Z,23.93
2018-07-22T08:36:07.463Z,23.91
2018-07-22T08:37:10.018Z,23.90
2018-07-22T08:38:12.532Z,23.91
2018-07-22T08:39:15.653Z,24.03
2018-07-22T08:40:19.572Z,23.14
2018-07-22T08:41:22.109Z,24.10
2018-07-22T08:42:24.614Z,24.13
2018-07-22T08:43:28.726Z,24.12
2018-07-22T08:44:31.620Z,24.17
2018-07-22T08:45:34.192Z,24.27
2018-07-22T08:46:37.146Z,24.32
2018-07-22T08:47:39.711Z,24.40
2018-07-22T08:48:42.204Z,24.46
2018-07-22T08:49:44.735Z,24.54
2018-07-22T08:50:47.370Z,24.61
2018-07-22T08:51:49.900Z,24.71
2018-07-22T08:52:52.910Z,24.78
2018-07-22T08:53:55.394Z,24.85
2018-07-22T08:54:58.532Z,24.89
2018-07-22T08:56:01.091Z,24.95
2018-07-22T08:57:03.628Z,24.96
2018-07-22T08:58:06.160Z,24.99
2018-07-22T08:59:11.478Z,25.03
2018-07-22T09:00:13.987Z,25.03
2018-07-22T09:01:16.489Z,25.06
2018-07-22T09:02:19.003Z,25.09
2018-07-22T09:03:21.504Z,25.12
2018-07-22T09:06:51.978Z,24.81
2018-07-22T09:13:12.697Z,24.71
2018-07-22T09:14:17.063Z,24.64
2018-07-22T09:15:19.731Z,24.64
2018-07-22T09:16:22.250Z,24.67
2018-07-22T09:17:24.844Z,23.46
2018-07-22T09:18:27.745Z,24.88
2018-07-22T09:19:32.603Z,25.00
2018-07-22T09:20:35.174Z,25.05
2018-07-22T09:21:38.335Z,24.98
2018-07-22T09:22:40.844Z,25.00
2018-07-22T09:23:43.355Z,25.01
2018-07-22T09:24:46.362Z,23.76
2018-07-22T09:25:48.876Z,25.01
2018-07-22T09:26:51.633Z,24.99
2018-07-22T09:27:54.392Z,24.97
2018-07-22T09:28:56.918Z,24.97
2018-07-22T09:29:59.516Z,24.98
2018-07-22T09:31:03.704Z,24.94
2018-07-22T09:32:06.607Z,24.99
2018-07-22T09:33:10.949Z,25.05
2018-07-22T09:34:13.483Z,23.94
2018-07-22T09:35:16.505Z,25.08
2018-07-22T09:36:19.088Z,25.11
2018-07-22T09:37:22.654Z,25.12
2018-07-22T09:38:25.231Z,25.14
2018-07-22T09:39:28.362Z,25.15
2018-07-22T09:40:30.862Z,25.19
2018-07-22T09:41:33.641Z,25.19
2018-07-22T09:42:37.272Z,25.17
2018-07-22T09:43:40.192Z,25.15
2018-07-22T09:44:42.863Z,25.17
2018-07-22T09:45:45.923Z,25.22
2018-07-22T09:46:48.462Z,25.26
2018-07-22T09:47:51.538Z,25.29
2018-07-22T09:48:54.188Z,25.28
2018-07-22T09:49:57.209Z,25.19
2018-07-22T09:50:59.716Z,25.25
2018-07-22T09:52:02.254Z,25.29
2018-07-22T09:53:07.771Z,25.33
2018-07-22T09:54:10.322Z,25.32
2018-07-22T09:55:12.819Z,25.29
2018-07-22T09:56:15.675Z,25.30
2018-07-22T09:57:19.360Z,25.31
2018-07-22T09:58:23.973Z,25.33
2018-07-22T09:59:27.056Z,25.35
2018-07-22T10:00:29.560Z,25.38
2018-07-22T10:01:32.211Z,24.41
2018-07-22T10:02:35.567Z,24.11
2018-07-22T10:03:38.341Z,25.37
2018-07-22T10:04:41.002Z,25.39
2018-07-22T10:05:43.633Z,25.40
2018-07-22T10:06:46.294Z,25.40
2018-07-22T10:07:49.841Z,25.39
2018-07-22T10:08:53.739Z,25.40
2018-07-22T10:09:56.943Z,25.43
2018-07-22T10:10:59.791Z,25.43
2018-07-22T10:12:06.271Z,25.37
2018-07-22T10:13:08.841Z,25.35
2018-07-22T10:14:12.105Z,25.39
2018-07-22T10:15:15.041Z,25.40
2018-07-22T10:16:17.738Z,25.42
2018-07-22T10:17:20.941Z,25.47
2018-07-22T10:18:23.496Z,25.48
2018-07-22T10:19:26.015Z,25.50
2018-07-22T11:36:22.577Z,25.09
2018-07-22T11:37:27.382Z,25.18
2018-07-22T11:38:31.401Z,25.33
2018-07-22T11:39:35.584Z,25.46
2018-07-22T11:40:38.709Z,25.58
2018-07-22T11:41:42.113Z,25.64
2018-07-22T11:42:48.636Z,25.69
2018-07-22T11:43:54.473Z,25.73
2018-07-22T11:44:58.618Z,25.76
2018-07-22T11:46:01.781Z,25.77
2018-07-22T11:47:04.350Z,25.80
2018-07-22T11:48:08.437Z,25.81
2018-07-22T11:49:10.954Z,25.81
2018-07-22T11:50:13.489Z,25.82
2018-07-22T11:51:16.924Z,25.83
2018-07-22T11:52:19.757Z,25.83
2018-07-22T11:53:23.710Z,25.84
2018-07-22T11:54:26.749Z,25.85
2018-07-22T11:55:29.331Z,25.86
2018-07-22T11:56:31.937Z,25.87
2018-07-22T11:57:35.855Z,25.87
2018-07-22T11:58:38.620Z,25.88
2018-07-22T11:59:41.490Z,25.89
2018-07-22T12:00:46.605Z,25.89
2018-07-22T12:01:52.475Z,25.89
2018-07-22T12:02:55.255Z,25.89
2018-07-22T12:03:57.769Z,25.88
2018-07-22T12:05:01.904Z,25.88
2018-07-22T12:06:08.402Z,25.88
2018-07-22T12:07:11.420Z,25.88
2018-07-22T12:08:14.590Z,25.88
2018-07-22T12:09:17.187Z,25.89
2018-07-22T12:10:20.647Z,25.89
2018-07-22T12:11:24.634Z,25.90
2018-07-22T12:12:27.686Z,25.91
2018-07-22T12:13:30.535Z,25.93
2018-07-22T12:14:37.153Z,25.93
2018-07-22T12:15:40.532Z,25.92
2018-07-22T12:16:45.670Z,25.92
2018-07-22T12:17:48.282Z,25.93
2018-07-22T12:18:50.782Z,25.92
2018-07-22T12:19:54.280Z,25.93
2018-07-22T12:20:57.102Z,25.94
2018-07-22T12:21:59.730Z,25.94
2018-07-22T12:23:03.137Z,25.94
2018-07-22T12:24:06.528Z,25.51
2018-07-22T12:25:09.392Z,25.95
2018-07-22T12:26:12.476Z,25.95
2018-07-22T12:27:16.440Z,25.96
2018-07-22T12:28:20.909Z,25.96
2018-07-22T12:29:23.649Z,25.95
2018-07-22T12:30:26.739Z,25.96
2018-07-22T12:31:30.616Z,25.97
2018-07-22T12:32:34.503Z,25.97
2018-07-22T12:33:39.741Z,25.99
2018-07-22T12:34:44.084Z,25.97
2018-07-22T12:35:46.945Z,25.94
2018-07-22T12:36:50.005Z,25.85
2018-07-22T12:37:53.613Z,25.87
2018-07-22T12:38:56.616Z,25.88
2018-07-22T12:39:59.646Z,25.87
2018-07-22T12:41:02.393Z,25.91
2018-07-22T12:42:04.919Z,24.61
2018-07-22T12:43:07.469Z,25.78
2018-07-22T12:44:11.647Z,25.70
2018-07-22T12:45:15.323Z,24.39
2018-07-22T12:46:18.632Z,25.66
2018-07-22T12:47:21.511Z,25.63
2018-07-22T12:48:24.022Z,25.62
2018-07-22T12:49:26.748Z,25.63
2018-07-22T12:50:30.440Z,25.70
2018-07-22T12:51:35.474Z,25.79
2018-07-22T12:52:38.211Z,25.78
2018-07-22T12:53:43.913Z,25.72
2018-07-22T12:54:46.672Z,25.67
2018-07-22T12:55:49.950Z,25.67
2018-07-22T12:56:53.309Z,25.75
2018-07-22T12:57:58.496Z,25.81
2018-07-22T12:59:01.763Z,25.86
2018-07-22T13:00:06.229Z,25.88
2018-07-22T13:01:09.644Z,25.93
2018-07-22T13:02:13.388Z,25.91
2018-07-22T13:03:16.060Z,25.91
2018-07-22T13:04:21.629Z,25.90
2018-07-22T13:05:26.358Z,25.90
2018-07-22T13:06:30.407Z,25.91
2018-07-22T13:07:33.285Z,25.91
2018-07-22T13:08:39.298Z,25.91
2018-07-22T13:09:42.007Z,25.92
2018-07-22T13:10:45.987Z,25.91
2018-07-22T13:11:49.855Z,25.91
2018-07-22T13:12:53.458Z,25.90
2018-07-22T13:13:56.344Z,25.90
2018-07-22T13:14:59.922Z,25.76
2018-07-22T13:16:02.669Z,25.90
2018-07-22T13:17:06.188Z,24.62
2018-07-22T13:18:08.849Z,25.90
2018-07-22T13:19:11.899Z,25.90
2018-07-22T13:20:14.819Z,25.90
2018-07-22T13:21:17.998Z,25.91
2018-07-22T13:22:20.649Z,25.90
2018-07-22T13:23:23.573Z,25.91
2018-07-22T13:24:26.569Z,25.91
2018-07-22T13:25:29.145Z,25.94
2018-07-22T13:26:31.997Z,25.96
2018-07-22T13:27:36.134Z,25.98
2018-07-22T13:28:39.601Z,25.99
2018-07-22T13:29:42.765Z,26.00
2018-07-22T13:30:45.577Z,26.02
2018-07-22T13:31:48.260Z,24.76
2018-07-22T13:32:51.516Z,26.03
2018-07-22T13:33:58.703Z,26.02
2018-07-22T13:35:02.739Z,25.75
2018-07-22T13:36:05.703Z,26.01
2018-07-22T13:37:08.390Z,26.00
2018-07-22T13:38:11.077Z,26.01
2018-07-22T13:39:13.831Z,26.02
2018-07-22T13:40:17.260Z,26.00
2018-07-22T13:41:20.375Z,26.03
2018-07-22T13:42:23.446Z,26.02
2018-07-22T13:43:26.125Z,24.75
2018-07-22T13:44:28.742Z,26.00
2018-07-22T13:45:32.967Z,26.02
2018-07-22T13:46:35.476Z,24.74
2018-07-22T13:47:38.392Z,26.01
2018-07-22T13:48:43.288Z,26.04
2018-07-22T13:49:45.807Z,26.10
2018-07-22T13:50:48.872Z,26.10
2018-07-22T13:51:51.391Z,26.10
2018-07-22T13:52:53.898Z,26.10
2018-07-22T13:53:59.608Z,26.08
2018-07-22T13:55:02.680Z,26.08
2018-07-22T13:56:05.912Z,26.08
2018-07-22T13:57:08.472Z,26.08
2018-07-22T13:58:11.068Z,26.10
2018-07-22T13:59:13.622Z,26.09
2018-07-22T14:00:16.716Z,26.07
2018-07-22T14:01:21.005Z,24.96
2018-07-22T14:02:23.520Z,26.11
2018-07-22T14:03:26.614Z,26.09
2018-07-22T14:04:29.103Z,26.08
2018-07-22T14:05:31.656Z,26.08
2018-07-22T14:06:34.484Z,26.09
2018-07-22T14:08:44.454Z,26.08
2018-07-22T14:09:47.017Z,26.05
2018-07-22T14:10:50.388Z,26.08
2018-07-22T14:11:54.944Z,26.11
2018-07-22T14:12:57.875Z,26.09
2018-07-22T14:14:00.400Z,26.09
2018-07-22T14:15:07.097Z,26.09
2018-07-22T14:16:09.639Z,26.08
2018-07-22T14:17:13.521Z,26.03
2018-07-22T14:18:16.762Z,26.06
2018-07-22T14:19:20.233Z,24.84
2018-07-22T14:20:22.772Z,26.09
2018-07-22T14:21:25.268Z,26.11
2018-07-22T14:22:27.763Z,26.11
2018-07-22T14:23:30.544Z,26.12
2018-07-22T14:24:33.346Z,26.13
2018-07-22T14:25:36.339Z,26.14
2018-07-22T14:26:38.884Z,26.14
2018-07-22T14:27:42.655Z,26.15
2018-07-22T14:28:45.194Z,26.15
2018-07-22T14:29:47.714Z,26.15
2018-07-22T14:30:51.085Z,26.14
2018-07-22T14:31:53.975Z,26.17
2018-07-22T14:32:56.559Z,26.16
2018-07-22T14:34:00.586Z,26.16
2018-07-22T14:35:03.105Z,26.17
2018-07-22T14:36:05.644Z,26.17
2018-07-22T14:37:10.416Z,26.16
2018-07-22T14:38:13.970Z,26.16
2018-07-22T14:39:16.494Z,26.16
2018-07-22T14:40:20.666Z,26.16
2018-07-22T14:41:23.164Z,26.17
2018-07-22T14:42:25.660Z,26.17
2018-07-22T14:43:28.474Z,26.14
2018-07-22T14:44:32.686Z,26.13
2018-07-22T14:45:35.438Z,26.12
2018-07-22T14:46:37.969Z,26.12
2018-07-22T14:47:40.510Z,25.13
2018-07-22T14:48:43.633Z,26.04
2018-07-22T14:49:46.206Z,26.04
2018-07-22T14:50:49.256Z,26.03
2018-07-22T14:51:52.440Z,26.06
2018-07-22T14:52:56.672Z,26.07
2018-07-22T14:54:01.512Z,26.09
2018-07-22T14:55:05.697Z,26.12
2018-07-22T14:56:09.858Z,26.17
2018-07-22T14:57:13.692Z,26.19
2018-07-22T14:58:16.262Z,26.21
2018-07-22T14:59:19.470Z,26.21
2018-07-22T15:00:22.463Z,26.23
2018-07-22T15:01:26.885Z,26.24
2018-07-22T15:02:29.447Z,26.23
2018-07-22T15:03:32.256Z,26.25
2018-07-22T15:04:34.751Z,26.25
2018-07-22T15:05:37.282Z,26.26
2018-07-22T15:06:39.800Z,26.28
2018-07-22T15:07:42.339Z,26.28
2018-07-22T15:08:45.373Z,26.17
2018-07-22T15:09:50.092Z,24.95
2018-07-22T15:10:52.602Z,26.12
2018-07-22T15:11:55.110Z,26.14
2018-07-22T15:12:57.602Z,26.10
2018-07-22T15:14:00.159Z,26.12
2018-07-22T15:15:02.710Z,26.15
2018-07-22T15:16:06.068Z,26.19
2018-07-22T15:17:09.255Z,26.22
2018-07-22T15:18:11.767Z,26.20
2018-07-22T15:19:14.304Z,26.20
2018-07-22T15:20:16.877Z,26.19
2018-07-22T15:21:19.430Z,26.09
2018-07-22T15:22:22.274Z,26.04
2018-07-22T15:23:25.410Z,25.96
2018-07-22T15:24:27.917Z,25.94
2018-07-22T15:25:31.646Z,25.92
2018-07-22T15:26:34.917Z,25.91
2018-07-22T15:27:37.451Z,25.91
2018-07-22T15:28:40.332Z,25.91
2018-07-22T15:29:42.864Z,25.93
2018-07-22T15:30:45.384Z,25.96
2018-07-22T15:31:47.981Z,25.94
2018-07-22T15:32:50.532Z,25.94
2018-07-22T15:33:53.031Z,25.93
2018-07-22T15:34:56.021Z,26.01
2018-07-22T15:35:58.572Z,26.10
2018-07-22T15:37:02.161Z,26.14
2018-07-22T15:38:04.678Z,26.17
2018-07-22T15:39:08.293Z,26.18
2018-07-22T15:40:10.886Z,26.19
2018-07-22T15:41:13.429Z,25.82
2018-07-22T15:42:15.920Z,26.18
2018-07-22T15:43:18.405Z,25.23
2018-07-22T15:44:21.560Z,26.18
2018-07-22T15:45:26.131Z,26.18
2018-07-22T15:46:31.409Z,26.19
2018-07-22T15:47:34.919Z,26.21
2018-07-22T15:48:38.051Z,26.21
2018-07-22T15:49:40.732Z,26.21
2018-07-22T15:50:43.254Z,26.21
2018-07-22T15:51:45.768Z,26.20
2018-07-22T15:52:48.618Z,26.20
2018-07-22T15:53:52.240Z,26.20
2018-07-22T16:18:52.497Z,25.53
2018-07-22T16:19:55.015Z,25.64
2018-07-22T16:20:57.650Z,25.78
2018-07-22T16:22:03.409Z,25.92
2018-07-22T16:23:07.280Z,26.04
2018-07-22T16:24:13.723Z,26.13
2018-07-22T16:25:16.729Z,26.20
2018-07-22T16:26:20.360Z,26.25
2018-07-22T16:27:23.877Z,26.27
2018-07-22T16:28:26.382Z,26.02
2018-07-22T16:29:30.093Z,25.17
2018-07-22T16:30:33.485Z,26.30
2018-07-22T16:31:36.582Z,26.34
2018-07-22T16:32:39.240Z,26.35
2018-07-22T16:33:42.359Z,26.36
2018-07-22T16:34:46.000Z,26.36
2018-07-22T16:35:48.662Z,26.40
2018-07-22T16:36:51.538Z,26.46
2018-07-22T16:37:58.448Z,26.49
2018-07-22T16:39:01.919Z,26.49
2018-07-22T16:40:04.440Z,26.53
2018-07-22T16:41:07.554Z,26.51
2018-07-22T16:42:10.956Z,26.49
2018-07-22T16:43:13.881Z,26.47
2018-07-22T16:44:16.388Z,26.45
2018-07-22T16:45:18.892Z,26.45
2018-07-22T16:46:21.438Z,26.45
2018-07-22T16:47:23.981Z,26.45
2018-07-22T16:48:26.513Z,26.45
2018-07-22T16:49:30.322Z,26.43
2018-07-22T16:50:35.258Z,25.18
2018-07-22T16:51:37.812Z,26.45
2018-07-22T16:52:41.181Z,26.47
2018-07-22T16:53:43.711Z,26.47
2018-07-22T16:54:47.634Z,26.48
2018-07-22T16:55:50.436Z,26.47
2018-07-22T16:56:52.912Z,26.47
2018-07-22T16:57:55.424Z,26.46
2018-07-22T16:58:57.949Z,26.47
2018-07-22T17:00:00.445Z,26.48
2018-07-22T17:01:02.960Z,26.48
2018-07-22T17:02:05.783Z,26.48
2018-07-22T17:03:08.298Z,26.47
2018-07-22T17:04:10.833Z,26.47
2018-07-22T17:05:14.323Z,26.48
2018-07-22T17:06:16.948Z,26.48
2018-07-22T17:07:19.536Z,25.22
2018-07-22T17:08:22.437Z,26.48
2018-07-22T17:09:24.928Z,26.49
2018-07-22T17:10:27.450Z,26.48
2018-07-22T17:11:29.972Z,26.49
2018-07-22T17:12:32.446Z,26.48
2018-07-22T17:13:34.938Z,26.47
2018-07-22T17:14:38.480Z,26.49
2018-07-22T17:15:41.048Z,26.47
2018-07-22T17:16:44.869Z,26.49
2018-07-22T17:17:47.611Z,26.49
2018-07-22T17:18:50.585Z,26.49
2018-07-22T17:19:53.064Z,26.49
2018-07-22T17:20:55.887Z,26.49
2018-07-22T17:21:58.413Z,26.50
2018-07-22T17:23:01.577Z,26.50
2018-07-22T17:24:05.353Z,26.50
2018-07-22T17:25:07.838Z,26.49
2018-07-22T17:26:10.652Z,26.49
2018-07-22T17:27:13.480Z,26.50
2018-07-22T17:28:16.604Z,26.51
2018-07-22T17:29:20.133Z,26.52
2018-07-22T17:30:23.978Z,24.74
2018-07-22T17:32:37.320Z,26.51
2018-07-22T17:33:41.826Z,26.53
2018-07-22T17:34:46.556Z,26.52
2018-07-22T17:35:49.345Z,26.53
2018-07-22T17:36:53.548Z,26.54
2018-07-22T17:37:56.181Z,26.55
2018-07-22T17:38:59.307Z,25.34
2018-07-22T17:40:04.708Z,26.56
2018-07-22T17:41:08.377Z,26.54
2018-07-22T17:43:24.463Z,26.54
2018-07-22T17:44:27.217Z,26.52
2018-07-22T17:45:31.534Z,26.53
2018-07-22T20:26:58.581Z,25.55
2018-07-22T20:28:01.947Z,25.65
2018-07-22T20:29:04.453Z,25.80
2018-07-22T20:30:07.629Z,25.87
2018-07-22T20:31:11.895Z,25.95
2018-07-22T20:32:14.878Z,25.96
2018-07-22T20:33:17.477Z,25.96
2018-07-22T20:34:20.188Z,25.96
2018-07-22T20:35:22.785Z,25.98
2018-07-22T20:36:25.315Z,26.02
2018-07-22T20:37:27.817Z,26.06
2018-07-22T20:38:30.747Z,26.14
2018-07-22T20:39:35.563Z,26.15
2018-07-22T20:40:38.103Z,26.09
2018-07-22T20:41:40.675Z,26.08
2018-07-22T20:42:43.198Z,26.08
2018-07-22T20:43:47.423Z,26.09
2018-07-22T20:44:51.476Z,26.08
2018-07-22T20:45:54.074Z,24.97
2018-07-22T20:46:56.608Z,26.05
2018-07-22T20:48:00.956Z,26.03
2018-07-22T20:49:03.523Z,26.04
2018-07-22T20:50:07.728Z,26.06
2018-07-22T20:51:10.764Z,26.01
2018-07-22T20:52:13.324Z,25.99
2018-07-22T20:53:15.857Z,25.96
2018-07-22T20:54:18.417Z,25.96
2018-07-22T20:55:20.972Z,26.02
2018-07-22T20:56:23.545Z,26.08
2018-07-22T20:57:26.665Z,26.12
2018-07-22T20:58:29.342Z,26.14
2018-07-22T20:59:33.621Z,26.13
2018-07-22T21:00:37.872Z,26.14
2018-07-22T21:01:40.624Z,26.03
2018-07-22T21:02:43.194Z,26.04
2018-07-22T21:03:48.732Z,25.96
2018-07-22T21:04:52.799Z,25.94
2018-07-22T21:05:55.332Z,25.96
2018-07-22T21:06:59.515Z,26.02
2018-07-22T21:08:02.072Z,26.06
2018-07-22T21:09:04.608Z,26.03
2018-07-22T21:10:08.331Z,25.98
2018-07-22T21:11:13.036Z,25.94
2018-07-22T21:12:16.187Z,25.99
2018-07-22T21:13:20.312Z,24.80
2018-07-22T21:14:23.112Z,25.99
2018-07-22T21:15:25.669Z,26.00
2018-07-22T21:16:29.285Z,25.99
2018-07-22T21:17:34.327Z,26.06
2018-07-22T21:18:40.429Z,26.08
2018-07-22T21:19:43.835Z,26.04
2018-07-22T21:20:47.085Z,26.03
2018-07-22T21:21:50.535Z,26.03
2018-07-22T21:22:57.085Z,26.06
2018-07-22T21:24:00.511Z,26.06
2018-07-22T21:25:03.154Z,26.02
2018-07-22T21:26:18.066Z,26.00
2018-07-22T21:27:23.100Z,25.98
2018-07-22T21:28:25.750Z,25.97
2018-07-22T21:29:29.840Z,25.97
2018-07-22T21:30:33.322Z,25.04
2018-07-22T21:31:36.003Z,24.79
2018-07-22T21:32:38.667Z,25.96
2018-07-22T21:33:46.680Z,25.96
2018-07-22T21:34:51.341Z,26.02
2018-07-22T21:35:57.650Z,26.02
2018-07-22T21:37:01.540Z,26.08
2018-07-22T21:38:05.621Z,26.07
2018-07-22T21:39:15.570Z,26.03
2018-07-22T21:40:22.301Z,26.04
2018-07-22T21:41:24.853Z,25.05
2018-07-22T21:42:28.435Z,26.00
2018-07-22T21:43:31.073Z,26.00
2018-07-22T21:44:34.477Z,25.94
2018-07-22T21:45:39.496Z,25.92
2018-07-22T21:47:55.688Z,25.88
2018-07-22T21:48:59.052Z,25.86
2018-07-22T21:50:02.699Z,25.85
2018-07-22T21:51:05.264Z,25.89
2018-07-22T21:52:10.007Z,25.91
2018-07-22T21:53:12.516Z,25.90
2018-07-22T21:54:16.203Z,25.95
2018-07-22T21:55:19.425Z,26.07
2018-07-22T21:56:23.230Z,25.07
